sensor_id;sensor_type;location;lat;lon;timestamp;P1;durP1;ratioP1;P2;durP2;ratioP2
27818;SDS011;15192;44.854;10.046;2023-07-13T00:01:15;8.48;;;2.12;;
27818;SDS011;15192;44.854;10.046;2023-07-13T00:03:46;4.60;;;1.42;;
27818;SDS011;15192;44.854;10.046;2023-07-13T00:06:15;5.03;;;1.37;;
27818;SDS011;15192;44.854;10.046;2023-07-13T00:08:44;6.10;;;2.55;;
27818;SDS011;15192;44.854;10.046;2023-07-13T00:11:14;6.03;;;1.70;;
27818;SDS011;15192;44.854;10.046;2023-07-13T00:13:44;3.10;;;1.25;;
27818;SDS011;15192;44.854;10.046;2023-07-13T00:16:13;6.97;;;2.00;;
27818;SDS011;15192;44.854;10.046;2023-07-13T00:18:42;7.58;;;1.35;;
27818;SDS011;15192;44.854;10.046;2023-07-13T00:21:11;6.83;;;1.80;;
27818;SDS011;15192;44.854;10.046;2023-07-13T00:23:41;7.03;;;1.72;;
27818;SDS011;15192;44.854;10.046;2023-07-13T00:26:11;4.47;;;1.85;;
27818;SDS011;15192;44.854;10.046;2023-07-13T00:28:40;4.95;;;2.00;;
27818;SDS011;15192;44.854;10.046;2023-07-13T00:31:10;2.42;;;1.52;;
27818;SDS011;15192;44.854;10.046;2023-07-13T00:36:09;4.67;;;1.67;;
27818;SDS011;15192;44.854;10.046;2023-07-13T00:38:39;5.08;;;1.55;;
27818;SDS011;15192;44.854;10.046;2023-07-13T00:41:08;3.60;;;1.60;;
27818;SDS011;15192;44.854;10.046;2023-07-13T00:43:38;8.88;;;1.72;;
27818;SDS011;15192;44.854;10.046;2023-07-13T00:46:15;7.87;;;2.62;;
27818;SDS011;15192;44.854;10.046;2023-07-13T00:48:42;3.60;;;1.87;;
27818;SDS011;15192;44.854;10.046;2023-07-13T00:51:16;6.30;;;1.77;;
27818;SDS011;15192;44.854;10.046;2023-07-13T00:53:47;4.78;;;1.50;;
27818;SDS011;15192;44.854;10.046;2023-07-13T00:56:16;6.15;;;2.05;;
27818;SDS011;15192;44.854;10.046;2023-07-13T00:58:45;5.37;;;2.05;;
27818;SDS011;15192;44.854;10.046;2023-07-13T01:01:14;5.25;;;1.50;;
27818;SDS011;15192;44.854;10.046;2023-07-13T01:03:43;9.50;;;2.58;;
27818;SDS011;15192;44.854;10.046;2023-07-13T01:06:14;5.67;;;1.92;;
27818;SDS011;15192;44.854;10.046;2023-07-13T01:08:44;2.20;;;1.45;;
27818;SDS011;15192;44.854;10.046;2023-07-13T01:11:13;4.92;;;1.82;;
27818;SDS011;15192;44.854;10.046;2023-07-13T01:13:44;5.62;;;2.08;;
27818;SDS011;15192;44.854;10.046;2023-07-13T01:16:19;4.30;;;1.65;;
27818;SDS011;15192;44.854;10.046;2023-07-13T01:18:45;5.42;;;1.85;;
27818;SDS011;15192;44.854;10.046;2023-07-13T01:21:14;5.10;;;1.72;;
27818;SDS011;15192;44.854;10.046;2023-07-13T01:23:43;3.35;;;1.90;;
27818;SDS011;15192;44.854;10.046;2023-07-13T01:26:12;2.62;;;1.72;;
27818;SDS011;15192;44.854;10.046;2023-07-13T01:28:41;3.92;;;1.77;;
27818;SDS011;15192;44.854;10.046;2023-07-13T01:31:10;3.92;;;1.77;;
27818;SDS011;15192;44.854;10.046;2023-07-13T01:33:39;8.45;;;1.98;;
27818;SDS011;15192;44.854;10.046;2023-07-13T01:36:10;3.85;;;1.50;;
27818;SDS011;15192;44.854;10.046;2023-07-13T01:38:39;2.90;;;1.67;;
27818;SDS011;15192;44.854;10.046;2023-07-13T01:41:08;4.85;;;1.82;;
27818;SDS011;15192;44.854;10.046;2023-07-13T01:43:37;7.05;;;1.95;;
27818;SDS011;15192;44.854;10.046;2023-07-13T01:46:07;8.65;;;2.35;;
27818;SDS011;15192;44.854;10.046;2023-07-13T01:48:36;2.75;;;1.70;;
27818;SDS011;15192;44.854;10.046;2023-07-13T01:51:05;8.08;;;2.08;;
27818;SDS011;15192;44.854;10.046;2023-07-13T01:53:34;5.40;;;2.00;;
27818;SDS011;15192;44.854;10.046;2023-07-13T01:56:02;7.37;;;2.37;;
27818;SDS011;15192;44.854;10.046;2023-07-13T01:58:32;5.35;;;1.92;;
27818;SDS011;15192;44.854;10.046;2023-07-13T02:01:00;6.25;;;2.35;;
27818;SDS011;15192;44.854;10.046;2023-07-13T02:03:29;8.08;;;2.37;;
27818;SDS011;15192;44.854;10.046;2023-07-13T02:05:58;7.20;;;2.08;;
27818;SDS011;15192;44.854;10.046;2023-07-13T02:08:27;5.35;;;2.25;;
27818;SDS011;15192;44.854;10.046;2023-07-13T02:10:56;5.40;;;1.87;;
27818;SDS011;15192;44.854;10.046;2023-07-13T02:13:25;4.92;;;1.85;;
27818;SDS011;15192;44.854;10.046;2023-07-13T02:15:55;4.12;;;2.00;;
27818;SDS011;15192;44.854;10.046;2023-07-13T02:18:24;3.50;;;1.85;;
27818;SDS011;15192;44.854;10.046;2023-07-13T02:20:53;5.92;;;1.80;;
27818;SDS011;15192;44.854;10.046;2023-07-13T02:23:22;3.70;;;2.22;;
27818;SDS011;15192;44.854;10.046;2023-07-13T02:25:57;3.30;;;2.20;;
27818;SDS011;15192;44.854;10.046;2023-07-13T02:28:28;6.47;;;1.90;;
27818;SDS011;15192;44.854;10.046;2023-07-13T02:31:03;7.22;;;2.22;;
27818;SDS011;15192;44.854;10.046;2023-07-13T02:33:34;4.60;;;2.12;;
27818;SDS011;15192;44.854;10.046;2023-07-13T02:36:03;4.10;;;1.80;;
27818;SDS011;15192;44.854;10.046;2023-07-13T02:38:33;5.67;;;2.30;;
27818;SDS011;15192;44.854;10.046;2023-07-13T02:41:03;5.85;;;1.92;;
27818;SDS011;15192;44.854;10.046;2023-07-13T02:43:33;8.40;;;2.65;;
27818;SDS011;15192;44.854;10.046;2023-07-13T02:46:02;8.00;;;2.33;;
27818;SDS011;15192;44.854;10.046;2023-07-13T02:48:33;7.60;;;2.65;;
27818;SDS011;15192;44.854;10.046;2023-07-13T02:51:02;3.80;;;2.00;;
27818;SDS011;15192;44.854;10.046;2023-07-13T02:53:31;9.48;;;2.25;;
27818;SDS011;15192;44.854;10.046;2023-07-13T02:56:02;5.22;;;2.40;;
27818;SDS011;15192;44.854;10.046;2023-07-13T02:58:32;3.87;;;2.10;;
27818;SDS011;15192;44.854;10.046;2023-07-13T03:01:05;2.72;;;1.87;;
27818;SDS011;15192;44.854;10.046;2023-07-13T03:03:34;5.00;;;2.00;;
27818;SDS011;15192;44.854;10.046;2023-07-13T03:06:04;4.92;;;2.15;;
27818;SDS011;15192;44.854;10.046;2023-07-13T03:08:36;7.45;;;2.35;;
27818;SDS011;15192;44.854;10.046;2023-07-13T03:11:07;5.62;;;1.82;;
27818;SDS011;15192;44.854;10.046;2023-07-13T03:13:41;2.80;;;1.70;;
27818;SDS011;15192;44.854;10.046;2023-07-13T03:16:10;4.95;;;2.12;;
27818;SDS011;15192;44.854;10.046;2023-07-13T03:18:41;6.47;;;2.07;;
27818;SDS011;15192;44.854;10.046;2023-07-13T03:21:11;6.08;;;2.10;;
27818;SDS011;15192;44.854;10.046;2023-07-13T03:23:41;3.90;;;1.95;;
27818;SDS011;15192;44.854;10.046;2023-07-13T03:28:42;8.30;;;2.40;;
27818;SDS011;15192;44.854;10.046;2023-07-13T03:31:14;5.03;;;2.40;;
27818;SDS011;15192;44.854;10.046;2023-07-13T03:33:45;6.62;;;2.37;;
27818;SDS011;15192;44.854;10.046;2023-07-13T03:36:22;6.62;;;2.35;;
27818;SDS011;15192;44.854;10.046;2023-07-13T03:38:48;5.90;;;2.27;;
27818;SDS011;15192;44.854;10.046;2023-07-13T03:41:21;8.08;;;2.40;;
27818;SDS011;15192;44.854;10.046;2023-07-13T03:43:53;3.42;;;2.10;;
27818;SDS011;15192;44.854;10.046;2023-07-13T03:46:23;6.10;;;2.50;;
27818;SDS011;15192;44.854;10.046;2023-07-13T03:48:52;7.55;;;2.42;;
27818;SDS011;15192;44.854;10.046;2023-07-13T03:51:22;5.78;;;2.22;;
27818;SDS011;15192;44.854;10.046;2023-07-13T03:53:51;4.83;;;2.50;;
27818;SDS011;15192;44.854;10.046;2023-07-13T03:56:20;5.15;;;2.45;;
27818;SDS011;15192;44.854;10.046;2023-07-13T03:58:50;8.83;;;3.05;;
27818;SDS011;15192;44.854;10.046;2023-07-13T04:01:21;6.67;;;2.40;;
27818;SDS011;15192;44.854;10.046;2023-07-13T04:03:52;10.50;;;2.47;;
27818;SDS011;15192;44.854;10.046;2023-07-13T04:06:23;6.53;;;2.85;;
27818;SDS011;15192;44.854;10.046;2023-07-13T04:08:55;4.62;;;2.25;;
27818;SDS011;15192;44.854;10.046;2023-07-13T04:11:26;7.42;;;2.52;;
27818;SDS011;15192;44.854;10.046;2023-07-13T04:13:58;8.68;;;2.37;;
27818;SDS011;15192;44.854;10.046;2023-07-13T04:16:27;4.97;;;2.52;;
27818;SDS011;15192;44.854;10.046;2023-07-13T04:18:56;4.08;;;2.42;;
27818;SDS011;15192;44.854;10.046;2023-07-13T04:21:28;6.60;;;2.70;;
27818;SDS011;15192;44.854;10.046;2023-07-13T04:23:58;4.08;;;2.62;;
27818;SDS011;15192;44.854;10.046;2023-07-13T04:26:27;4.78;;;3.00;;
27818;SDS011;15192;44.854;10.046;2023-07-13T04:28:56;6.42;;;3.02;;
27818;SDS011;15192;44.854;10.046;2023-07-13T04:31:25;6.92;;;2.85;;
27818;SDS011;15192;44.854;10.046;2023-07-13T04:33:55;6.72;;;3.15;;
27818;SDS011;15192;44.854;10.046;2023-07-13T04:36:24;7.25;;;2.95;;
27818;SDS011;15192;44.854;10.046;2023-07-13T04:38:56;6.95;;;3.95;;
27818;SDS011;15192;44.854;10.046;2023-07-13T04:41:25;13.35;;;4.30;;
27818;SDS011;15192;44.854;10.046;2023-07-13T04:43:55;8.40;;;3.95;;
27818;SDS011;15192;44.854;10.046;2023-07-13T04:46:24;10.05;;;4.20;;
27818;SDS011;15192;44.854;10.046;2023-07-13T04:48:52;6.90;;;3.87;;
27818;SDS011;15192;44.854;10.046;2023-07-13T04:51:22;9.65;;;4.15;;
27818;SDS011;15192;44.854;10.046;2023-07-13T04:53:50;8.53;;;3.62;;
27818;SDS011;15192;44.854;10.046;2023-07-13T04:56:19;5.10;;;2.80;;
27818;SDS011;15192;44.854;10.046;2023-07-13T04:58:48;8.28;;;2.70;;
27818;SDS011;15192;44.854;10.046;2023-07-13T05:01:17;8.63;;;3.42;;
27818;SDS011;15192;44.854;10.046;2023-07-13T05:03:47;9.10;;;3.40;;
27818;SDS011;15192;44.854;10.046;2023-07-13T05:06:16;9.58;;;4.00;;
27818;SDS011;15192;44.854;10.046;2023-07-13T05:08:45;8.73;;;3.40;;
27818;SDS011;15192;44.854;10.046;2023-07-13T05:11:14;8.20;;;3.40;;
27818;SDS011;15192;44.854;10.046;2023-07-13T05:13:42;6.20;;;3.12;;
27818;SDS011;15192;44.854;10.046;2023-07-13T05:16:11;8.25;;;3.50;;
27818;SDS011;15192;44.854;10.046;2023-07-13T05:18:40;7.78;;;3.30;;
27818;SDS011;15192;44.854;10.046;2023-07-13T05:21:10;6.80;;;3.35;;
27818;SDS011;15192;44.854;10.046;2023-07-13T05:23:39;8.30;;;3.40;;
27818;SDS011;15192;44.854;10.046;2023-07-13T05:26:11;7.55;;;3.37;;
27818;SDS011;15192;44.854;10.046;2023-07-13T05:28:40;10.23;;;3.77;;
27818;SDS011;15192;44.854;10.046;2023-07-13T05:31:09;10.55;;;3.67;;
27818;SDS011;15192;44.854;10.046;2023-07-13T05:33:38;8.85;;;4.00;;
27818;SDS011;15192;44.854;10.046;2023-07-13T05:36:08;10.58;;;3.75;;
27818;SDS011;15192;44.854;10.046;2023-07-13T05:38:37;9.58;;;3.55;;
27818;SDS011;15192;44.854;10.046;2023-07-13T05:41:07;21.50;;;4.47;;
27818;SDS011;15192;44.854;10.046;2023-07-13T05:43:36;10.45;;;3.60;;
27818;SDS011;15192;44.854;10.046;2023-07-13T05:46:05;7.28;;;2.80;;
27818;SDS011;15192;44.854;10.046;2023-07-13T05:48:33;9.53;;;3.20;;
27818;SDS011;15192;44.854;10.046;2023-07-13T05:51:02;6.17;;;3.33;;
27818;SDS011;15192;44.854;10.046;2023-07-13T05:53:31;8.00;;;4.00;;
27818;SDS011;15192;44.854;10.046;2023-07-13T05:56:00;9.23;;;3.70;;
27818;SDS011;15192;44.854;10.046;2023-07-13T05:58:29;6.90;;;3.25;;
27818;SDS011;15192;44.854;10.046;2023-07-13T06:00:59;5.22;;;3.42;;
27818;SDS011;15192;44.854;10.046;2023-07-13T06:03:36;8.80;;;3.87;;
27818;SDS011;15192;44.854;10.046;2023-07-13T06:06:06;9.33;;;3.50;;
27818;SDS011;15192;44.854;10.046;2023-07-13T06:08:37;6.53;;;4.10;;
27818;SDS011;15192;44.854;10.046;2023-07-13T06:11:07;18.60;;;3.90;;
27818;SDS011;15192;44.854;10.046;2023-07-13T06:13:37;7.67;;;3.60;;
27818;SDS011;15192;44.854;10.046;2023-07-13T06:16:06;10.63;;;3.62;;
27818;SDS011;15192;44.854;10.046;2023-07-13T06:18:36;13.43;;;3.47;;
27818;SDS011;15192;44.854;10.046;2023-07-13T06:21:16;8.10;;;3.42;;
27818;SDS011;15192;44.854;10.046;2023-07-13T06:23:40;13.65;;;4.20;;
27818;SDS011;15192;44.854;10.046;2023-07-13T06:26:09;9.30;;;4.05;;
27818;SDS011;15192;44.854;10.046;2023-07-13T06:28:38;16.52;;;4.70;;
27818;SDS011;15192;44.854;10.046;2023-07-13T06:31:08;9.70;;;3.62;;
27818;SDS011;15192;44.854;10.046;2023-07-13T06:33:38;8.47;;;3.30;;
27818;SDS011;15192;44.854;10.046;2023-07-13T06:36:07;9.48;;;3.62;;
27818;SDS011;15192;44.854;10.046;2023-07-13T06:38:37;10.05;;;4.05;;
27818;SDS011;15192;44.854;10.046;2023-07-13T06:41:07;12.63;;;4.53;;
27818;SDS011;15192;44.854;10.046;2023-07-13T06:43:36;10.98;;;3.30;;
27818;SDS011;15192;44.854;10.046;2023-07-13T06:46:05;11.63;;;4.50;;
27818;SDS011;15192;44.854;10.046;2023-07-13T06:48:34;10.70;;;4.20;;
27818;SDS011;15192;44.854;10.046;2023-07-13T06:51:03;8.03;;;4.62;;
27818;SDS011;15192;44.854;10.046;2023-07-13T06:53:32;13.90;;;4.50;;
27818;SDS011;15192;44.854;10.046;2023-07-13T06:56:00;16.42;;;4.25;;
27818;SDS011;15192;44.854;10.046;2023-07-13T06:58:29;13.20;;;4.45;;
27818;SDS011;15192;44.854;10.046;2023-07-13T07:00:58;20.23;;;4.55;;
27818;SDS011;15192;44.854;10.046;2023-07-13T07:03:27;14.40;;;4.35;;
27818;SDS011;15192;44.854;10.046;2023-07-13T07:06:06;11.00;;;4.25;;
27818;SDS011;15192;44.854;10.046;2023-07-13T07:08:41;7.33;;;4.97;;
27818;SDS011;15192;44.854;10.046;2023-07-13T07:11:13;16.60;;;5.30;;
27818;SDS011;15192;44.854;10.046;2023-07-13T07:13:44;14.87;;;5.20;;
27818;SDS011;15192;44.854;10.046;2023-07-13T07:16:13;8.25;;;4.67;;
27818;SDS011;15192;44.854;10.046;2023-07-13T07:18:43;16.30;;;5.05;;
27818;SDS011;15192;44.854;10.046;2023-07-13T07:21:12;11.57;;;4.20;;
27818;SDS011;15192;44.854;10.046;2023-07-13T07:23:42;11.20;;;4.25;;
27818;SDS011;15192;44.854;10.046;2023-07-13T07:26:11;12.58;;;4.55;;
27818;SDS011;15192;44.854;10.046;2023-07-13T07:28:40;10.78;;;4.47;;
27818;SDS011;15192;44.854;10.046;2023-07-13T07:31:09;14.87;;;5.17;;
27818;SDS011;15192;44.854;10.046;2023-07-13T07:33:38;14.87;;;5.28;;
27818;SDS011;15192;44.854;10.046;2023-07-13T07:36:07;8.08;;;4.62;;
27818;SDS011;15192;44.854;10.046;2023-07-13T07:38:36;13.22;;;4.78;;
27818;SDS011;15192;44.854;10.046;2023-07-13T07:41:05;9.68;;;4.47;;
27818;SDS011;15192;44.854;10.046;2023-07-13T07:43:34;13.62;;;4.28;;
27818;SDS011;15192;44.854;10.046;2023-07-13T07:46:03;11.28;;;5.12;;
27818;SDS011;15192;44.854;10.046;2023-07-13T07:48:32;11.60;;;4.97;;
27818;SDS011;15192;44.854;10.046;2023-07-13T07:51:01;15.35;;;4.65;;
27818;SDS011;15192;44.854;10.046;2023-07-13T07:53:30;11.35;;;4.22;;
27818;SDS011;15192;44.854;10.046;2023-07-13T07:55:59;6.95;;;3.92;;
27818;SDS011;15192;44.854;10.046;2023-07-13T07:58:28;16.57;;;4.87;;
27818;SDS011;15192;44.854;10.046;2023-07-13T08:01:04;11.50;;;4.60;;
27818;SDS011;15192;44.854;10.046;2023-07-13T08:03:33;9.48;;;4.50;;
27818;SDS011;15192;44.854;10.046;2023-07-13T08:06:02;14.20;;;5.00;;
27818;SDS011;15192;44.854;10.046;2023-07-13T08:08:31;7.97;;;4.05;;
27818;SDS011;15192;44.854;10.046;2023-07-13T08:11:06;9.60;;;4.67;;
27818;SDS011;15192;44.854;10.046;2023-07-13T08:16:00;14.65;;;5.67;;
27818;SDS011;15192;44.854;10.046;2023-07-13T08:18:29;16.37;;;6.50;;
27818;SDS011;15192;44.854;10.046;2023-07-13T08:20:58;19.82;;;6.33;;
27818;SDS011;15192;44.854;10.046;2023-07-13T08:23:35;10.43;;;5.15;;
27818;SDS011;15192;44.854;10.046;2023-07-13T08:26:04;19.10;;;5.83;;
27818;SDS011;15192;44.854;10.046;2023-07-13T08:28:33;16.77;;;5.97;;
27818;SDS011;15192;44.854;10.046;2023-07-13T08:31:03;20.50;;;5.22;;
27818;SDS011;15192;44.854;10.046;2023-07-13T08:33:34;14.55;;;5.42;;
27818;SDS011;15192;44.854;10.046;2023-07-13T08:36:04;13.28;;;5.42;;
27818;SDS011;15192;44.854;10.046;2023-07-13T08:38:33;13.22;;;4.80;;
27818;SDS011;15192;44.854;10.046;2023-07-13T08:41:09;12.95;;;4.60;;
27818;SDS011;15192;44.854;10.046;2023-07-13T08:43:41;13.32;;;4.53;;
27818;SDS011;15192;44.854;10.046;2023-07-13T08:46:33;16.23;;;5.08;;
27818;SDS011;15192;44.854;10.046;2023-07-13T08:49:10;14.87;;;4.45;;
27818;SDS011;15192;44.854;10.046;2023-07-13T08:51:46;6.53;;;4.40;;
27818;SDS011;15192;44.854;10.046;2023-07-13T08:54:34;12.10;;;4.40;;
27818;SDS011;15192;44.854;10.046;2023-07-13T08:57:17;9.55;;;4.00;;
27818;SDS011;15192;44.854;10.046;2023-07-13T08:59:42;11.85;;;4.33;;
27818;SDS011;15192;44.854;10.046;2023-07-13T09:05:18;8.23;;;4.25;;
27818;SDS011;15192;44.854;10.046;2023-07-13T09:08:03;9.83;;;3.35;;
27818;SDS011;15192;44.854;10.046;2023-07-13T09:10:49;9.28;;;3.65;;
27818;SDS011;15192;44.854;10.046;2023-07-13T09:13:23;5.95;;;3.80;;
27818;SDS011;15192;44.854;10.046;2023-07-13T09:15:52;10.18;;;4.05;;
27818;SDS011;15192;44.854;10.046;2023-07-13T09:18:23;19.12;;;3.90;;
27818;SDS011;15192;44.854;10.046;2023-07-13T09:21:10;8.38;;;3.55;;
27818;SDS011;15192;44.854;10.046;2023-07-13T09:26:42;8.80;;;3.70;;
27818;SDS011;15192;44.854;10.046;2023-07-13T09:29:29;13.10;;;3.08;;
27818;SDS011;15192;44.854;10.046;2023-07-13T09:31:57;9.10;;;3.17;;
27818;SDS011;15192;44.854;10.046;2023-07-13T09:34:29;9.25;;;3.37;;
27818;SDS011;15192;44.854;10.046;2023-07-13T09:36:59;6.85;;;3.40;;
27818;SDS011;15192;44.854;10.046;2023-07-13T09:39:33;6.97;;;3.90;;
27818;SDS011;15192;44.854;10.046;2023-07-13T09:42:01;6.53;;;3.17;;
27818;SDS011;15192;44.854;10.046;2023-07-13T09:44:38;10.60;;;3.62;;
27818;SDS011;15192;44.854;10.046;2023-07-13T09:47:28;10.28;;;3.05;;
27818;SDS011;15192;44.854;10.046;2023-07-13T09:50:00;7.53;;;3.08;;
27818;SDS011;15192;44.854;10.046;2023-07-13T09:52:43;15.40;;;3.83;;
27818;SDS011;15192;44.854;10.046;2023-07-13T09:57:54;9.38;;;3.05;;
27818;SDS011;15192;44.854;10.046;2023-07-13T10:00:25;14.58;;;3.62;;
27818;SDS011;15192;44.854;10.046;2023-07-13T10:02:59;9.78;;;3.62;;
27818;SDS011;15192;44.854;10.046;2023-07-13T10:05:40;11.68;;;3.05;;
27818;SDS011;15192;44.854;10.046;2023-07-13T10:08:17;3.95;;;2.00;;
27818;SDS011;15192;44.854;10.046;2023-07-13T10:10:59;5.65;;;2.52;;
27818;SDS011;15192;44.854;10.046;2023-07-13T10:16:04;5.40;;;2.65;;
27818;SDS011;15192;44.854;10.046;2023-07-13T10:18:45;4.12;;;2.70;;
27818;SDS011;15192;44.854;10.046;2023-07-13T10:21:21;5.35;;;2.70;;
27818;SDS011;15192;44.854;10.046;2023-07-13T10:24:02;5.50;;;2.65;;
27818;SDS011;15192;44.854;10.046;2023-07-13T10:26:33;6.97;;;2.92;;
27818;SDS011;15192;44.854;10.046;2023-07-13T10:29:05;14.93;;;5.25;;
27818;SDS011;15192;44.854;10.046;2023-07-13T10:31:35;6.12;;;3.42;;
27818;SDS011;15192;44.854;10.046;2023-07-13T10:36:40;8.08;;;2.95;;
27818;SDS011;15192;44.854;10.046;2023-07-13T10:39:16;6.00;;;2.70;;
27818;SDS011;15192;44.854;10.046;2023-07-13T10:41:52;12.28;;;3.35;;
27818;SDS011;15192;44.854;10.046;2023-07-13T10:44:28;3.90;;;2.67;;
27818;SDS011;15192;44.854;10.046;2023-07-13T10:47:00;6.90;;;3.40;;
27818;SDS011;15192;44.854;10.046;2023-07-13T10:49:34;7.87;;;2.83;;
27818;SDS011;15192;44.854;10.046;2023-07-13T10:52:04;6.05;;;2.90;;
27818;SDS011;15192;44.854;10.046;2023-07-13T10:54:34;6.67;;;3.40;;
27818;SDS011;15192;44.854;10.046;2023-07-13T11:02:39;10.30;;;4.95;;
27818;SDS011;15192;44.854;10.046;2023-07-13T11:05:22;10.28;;;5.55;;
27818;SDS011;15192;44.854;10.046;2023-07-13T11:08:03;13.80;;;4.53;;
27818;SDS011;15192;44.854;10.046;2023-07-13T11:11:37;9.55;;;4.95;;
27818;SDS011;15192;44.854;10.046;2023-07-13T11:18:51;8.00;;;4.17;;
27818;SDS011;15192;44.854;10.046;2023-07-13T11:21:22;10.65;;;5.05;;
27818;SDS011;15192;44.854;10.046;2023-07-13T11:24:01;9.28;;;3.62;;
27818;SDS011;15192;44.854;10.046;2023-07-13T11:31:54;6.58;;;3.98;;
27818;SDS011;15192;44.854;10.046;2023-07-13T11:34:27;14.10;;;4.97;;
27818;SDS011;15192;44.854;10.046;2023-07-13T11:37:01;8.58;;;4.55;;
27818;SDS011;15192;44.854;10.046;2023-07-13T11:39:32;10.90;;;3.90;;
27818;SDS011;15192;44.854;10.046;2023-07-13T11:42:03;13.32;;;5.10;;
27818;SDS011;15192;44.854;10.046;2023-07-13T11:44:35;9.90;;;4.33;;
27818;SDS011;15192;44.854;10.046;2023-07-13T11:47:11;8.93;;;4.22;;
27818;SDS011;15192;44.854;10.046;2023-07-13T11:49:49;7.28;;;4.25;;
27818;SDS011;15192;44.854;10.046;2023-07-13T11:52:20;8.50;;;4.20;;
27818;SDS011;15192;44.854;10.046;2023-07-13T11:54:52;11.43;;;4.90;;
27818;SDS011;15192;44.854;10.046;2023-07-13T11:57:25;9.70;;;4.95;;
27818;SDS011;15192;44.854;10.046;2023-07-13T11:59:56;19.25;;;5.95;;
27818;SDS011;15192;44.854;10.046;2023-07-13T12:04:59;8.45;;;4.58;;
27818;SDS011;15192;44.854;10.046;2023-07-13T12:07:31;18.15;;;4.70;;
27818;SDS011;15192;44.854;10.046;2023-07-13T12:10:22;13.45;;;4.33;;
27818;SDS011;15192;44.854;10.046;2023-07-13T12:12:53;9.95;;;4.10;;
27818;SDS011;15192;44.854;10.046;2023-07-13T12:18:15;12.18;;;4.20;;
27818;SDS011;15192;44.854;10.046;2023-07-13T12:20:46;13.70;;;4.97;;
27818;SDS011;15192;44.854;10.046;2023-07-13T12:23:27;8.88;;;5.22;;
27818;SDS011;15192;44.854;10.046;2023-07-13T12:26:01;12.70;;;5.22;;
27818;SDS011;15192;44.854;10.046;2023-07-13T12:28:38;12.55;;;4.50;;
27818;SDS011;15192;44.854;10.046;2023-07-13T12:36:46;17.12;;;5.62;;
27818;SDS011;15192;44.854;10.046;2023-07-13T12:39:20;10.10;;;4.97;;
27818;SDS011;15192;44.854;10.046;2023-07-13T12:41:54;10.68;;;5.25;;
27818;SDS011;15192;44.854;10.046;2023-07-13T12:44:29;13.10;;;5.15;;
27818;SDS011;15192;44.854;10.046;2023-07-13T12:47:03;13.45;;;5.50;;
27818;SDS011;15192;44.854;10.046;2023-07-13T12:49:39;11.55;;;5.25;;
27818;SDS011;15192;44.854;10.046;2023-07-13T12:52:14;12.00;;;4.72;;
27818;SDS011;15192;44.854;10.046;2023-07-13T12:54:58;23.77;;;5.72;;
27818;SDS011;15192;44.854;10.046;2023-07-13T12:57:28;12.25;;;5.83;;
27818;SDS011;15192;44.854;10.046;2023-07-13T12:59:57;13.00;;;4.80;;
27818;SDS011;15192;44.854;10.046;2023-07-13T13:02:28;7.85;;;4.55;;
27818;SDS011;15192;44.854;10.046;2023-07-13T13:05:02;15.75;;;5.58;;
27818;SDS011;15192;44.854;10.046;2023-07-13T13:07:32;11.20;;;4.87;;
27818;SDS011;15192;44.854;10.046;2023-07-13T13:10:01;13.53;;;5.72;;
27818;SDS011;15192;44.854;10.046;2023-07-13T13:12:33;13.65;;;5.03;;
27818;SDS011;15192;44.854;10.046;2023-07-13T13:15:02;14.73;;;5.17;;
27818;SDS011;15192;44.854;10.046;2023-07-13T13:17:33;7.90;;;4.00;;
27818;SDS011;15192;44.854;10.046;2023-07-13T13:20:04;10.05;;;5.33;;
27818;SDS011;15192;44.854;10.046;2023-07-13T13:22:45;14.35;;;4.78;;
27818;SDS011;15192;44.854;10.046;2023-07-13T13:25:14;14.35;;;4.75;;
27818;SDS011;15192;44.854;10.046;2023-07-13T13:27:45;17.37;;;5.55;;
27818;SDS011;15192;44.854;10.046;2023-07-13T13:30:15;10.60;;;4.67;;
27818;SDS011;15192;44.854;10.046;2023-07-13T13:35:15;18.15;;;5.65;;
27818;SDS011;15192;44.854;10.046;2023-07-13T13:37:46;15.63;;;4.97;;
27818;SDS011;15192;44.854;10.046;2023-07-13T13:42:50;13.13;;;4.25;;
27818;SDS011;15192;44.854;10.046;2023-07-13T13:45:21;8.78;;;4.28;;
27818;SDS011;15192;44.854;10.046;2023-07-13T13:47:51;9.05;;;4.28;;
27818;SDS011;15192;44.854;10.046;2023-07-13T13:50:20;13.32;;;4.72;;
27818;SDS011;15192;44.854;10.046;2023-07-13T13:52:50;9.23;;;4.50;;
27818;SDS011;15192;44.854;10.046;2023-07-13T13:55:19;12.10;;;4.42;;
27818;SDS011;15192;44.854;10.046;2023-07-13T13:57:51;13.80;;;4.28;;
27818;SDS011;15192;44.854;10.046;2023-07-13T14:00:21;9.45;;;4.22;;
27818;SDS011;15192;44.854;10.046;2023-07-13T14:02:49;9.03;;;4.20;;
27818;SDS011;15192;44.854;10.046;2023-07-13T14:05:21;7.45;;;3.83;;
27818;SDS011;15192;44.854;10.046;2023-07-13T14:07:53;8.98;;;4.62;;
27818;SDS011;15192;44.854;10.046;2023-07-13T14:10:23;12.30;;;4.70;;
27818;SDS011;15192;44.854;10.046;2023-07-13T14:12:53;15.00;;;4.20;;
27818;SDS011;15192;44.854;10.046;2023-07-13T14:15:25;13.62;;;5.35;;
27818;SDS011;15192;44.854;10.046;2023-07-13T14:17:57;10.45;;;5.03;;
27818;SDS011;15192;44.854;10.046;2023-07-13T14:20:26;12.63;;;4.40;;
27818;SDS011;15192;44.854;10.046;2023-07-13T14:22:56;13.83;;;5.20;;
27818;SDS011;15192;44.854;10.046;2023-07-13T14:25:25;11.68;;;4.75;;
27818;SDS011;15192;44.854;10.046;2023-07-13T14:27:58;14.53;;;5.85;;
27818;SDS011;15192;44.854;10.046;2023-07-13T14:30:29;12.47;;;4.65;;
27818;SDS011;15192;44.854;10.046;2023-07-13T14:32:58;11.18;;;5.15;;
27818;SDS011;15192;44.854;10.046;2023-07-13T14:35:27;9.58;;;4.53;;
27818;SDS011;15192;44.854;10.046;2023-07-13T14:37:56;14.25;;;4.53;;
27818;SDS011;15192;44.854;10.046;2023-07-13T14:40:28;15.23;;;4.55;;
27818;SDS011;15192;44.854;10.046;2023-07-13T14:42:58;12.85;;;4.87;;
27818;SDS011;15192;44.854;10.046;2023-07-13T14:45:27;15.75;;;5.25;;
27818;SDS011;15192;44.854;10.046;2023-07-13T14:47:58;10.55;;;4.90;;
27818;SDS011;15192;44.854;10.046;2023-07-13T14:50:30;11.45;;;4.65;;
27818;SDS011;15192;44.854;10.046;2023-07-13T14:52:59;12.37;;;4.30;;
27818;SDS011;15192;44.854;10.046;2023-07-13T14:55:28;12.60;;;4.58;;
27818;SDS011;15192;44.854;10.046;2023-07-13T14:57:57;9.28;;;3.77;;
27818;SDS011;15192;44.854;10.046;2023-07-13T15:00:26;15.65;;;4.75;;
27818;SDS011;15192;44.854;10.046;2023-07-13T15:02:56;9.95;;;4.60;;
27818;SDS011;15192;44.854;10.046;2023-07-13T15:05:28;11.10;;;4.33;;
27818;SDS011;15192;44.854;10.046;2023-07-13T15:10:29;18.07;;;4.17;;
27818;SDS011;15192;44.854;10.046;2023-07-13T15:13:00;14.55;;;4.42;;
27818;SDS011;15192;44.854;10.046;2023-07-13T15:15:32;19.82;;;4.67;;
27818;SDS011;15192;44.854;10.046;2023-07-13T15:18:03;14.05;;;4.65;;
27818;SDS011;15192;44.854;10.046;2023-07-13T15:20:32;12.85;;;4.47;;
27818;SDS011;15192;44.854;10.046;2023-07-13T15:23:04;12.00;;;5.25;;
27818;SDS011;15192;44.854;10.046;2023-07-13T15:25:33;14.30;;;4.75;;
27818;SDS011;15192;44.854;10.046;2023-07-13T15:28:02;16.27;;;4.37;;
27818;SDS011;15192;44.854;10.046;2023-07-13T15:30:34;16.30;;;4.67;;
27818;SDS011;15192;44.854;10.046;2023-07-13T15:33:12;11.55;;;4.37;;
27818;SDS011;15192;44.854;10.046;2023-07-13T15:35:44;10.65;;;4.62;;
27818;SDS011;15192;44.854;10.046;2023-07-13T15:38:20;10.72;;;4.20;;
27818;SDS011;15192;44.854;10.046;2023-07-13T15:40:47;15.18;;;4.70;;
27818;SDS011;15192;44.854;10.046;2023-07-13T15:43:19;12.03;;;5.15;;
27818;SDS011;15192;44.854;10.046;2023-07-13T15:45:48;13.22;;;5.20;;
27818;SDS011;15192;44.854;10.046;2023-07-13T15:48:24;13.30;;;3.87;;